sensor_id;sensor_type;location;lat;lon;timestamp;temperature;humidity
5457;DHT22;2751;49.802;9.944;2023-09-12T00:00:45;18.80;1.00
5457;DHT22;2751;49.802;9.944;2023-09-12T00:03:12;18.80;1.00
5457;DHT22;2751;49.802;9.944;2023-09-12T00:05:38;18.80;4.20
5457;DHT22;2751;49.802;9.944;2023-09-12T00:08:05;18.80;37.50
5457;DHT22;2751;49.802;9.944;2023-09-12T00:10:32;18.80;89.10
5457;DHT22;2751;49.802;9.944;2023-09-12T00:13:01;18.80;99.90
5457;DHT22;2751;49.802;9.944;2023-09-12T00:15:28;18.70;99.90
5457;DHT22;2751;49.802;9.944;2023-09-12T00:17:55;18.70;32.50
5457;DHT22;2751;49.802;9.944;2023-09-12T00:20:22;18.60;31.80
5457;DHT22;2751;49.802;9.944;2023-09-12T00:22:49;18.50;81.30
5457;DHT22;2751;49.802;9.944;2023-09-12T00:25:16;18.50;99.90
5457;DHT22;2751;49.802;9.944;2023-09-12T00:27:43;18.50;99.90
5457;DHT22;2751;49.802;9.944;2023-09-12T00:30:13;18.50;99.90
5457;DHT22;2751;49.802;9.944;2023-09-12T00:32:40;18.50;99.90
5457;DHT22;2751;49.802;9.944;2023-09-12T00:35:07;18.50;99.90
5457;DHT22;2751;49.802;9.944;2023-09-12T00:37:34;18.50;99.90
5457;DHT22;2751;49.802;9.944;2023-09-12T00:40:01;18.40;99.90
5457;DHT22;2751;49.802;9.944;2023-09-12T00:42:28;18.40;99.90
5457;DHT22;2751;49.802;9.944;2023-09-12T00:44:55;18.40;99.90
5457;DHT22;2751;49.802;9.944;2023-09-12T00:47:23;18.30;99.90
5457;DHT22;2751;49.802;9.944;2023-09-12T00:49:51;18.30;99.90
5457;DHT22;2751;49.802;9.944;2023-09-12T00:52:19;18.20;99.90
5457;DHT22;2751;49.802;9.944;2023-09-12T00:54:47;18.20;1.00
5457;DHT22;2751;49.802;9.944;2023-09-12T00:57:14;18.20;1.00
5457;DHT22;2751;49.802;9.944;2023-09-12T00:59:41;18.20;1.00
5457;DHT22;2751;49.802;9.944;2023-09-12T01:02:08;18.20;1.00
5457;DHT22;2751;49.802;9.944;2023-09-12T01:04:37;18.10;1.00
5457;DHT22;2751;49.802;9.944;2023-09-12T01:07:04;18.10;1.00
5457;DHT22;2751;49.802;9.944;2023-09-12T01:09:31;18.10;1.00
5457;DHT22;2751;49.802;9.944;2023-09-12T01:11:59;18.00;1.00
5457;DHT22;2751;49.802;9.944;2023-09-12T01:14:27;18.00;1.00
5457;DHT22;2751;49.802;9.944;2023-09-12T01:16:54;17.90;1.00
5457;DHT22;2751;49.802;9.944;2023-09-12T01:19:21;18.00;1.00
5457;DHT22;2751;49.802;9.944;2023-09-12T01:22:10;18.00;99.90
5457;DHT22;2751;49.802;9.944;2023-09-12T01:25:10;18.00;99.90
5457;DHT22;2751;49.802;9.944;2023-09-12T01:27:46;17.90;99.90
5457;DHT22;2751;49.802;9.944;2023-09-12T01:30:17;17.90;99.90
5457;DHT22;2751;49.802;9.944;2023-09-12T01:32:45;17.90;99.90
5457;DHT22;2751;49.802;9.944;2023-09-12T01:35:12;17.90;99.90
5457;DHT22;2751;49.802;9.944;2023-09-12T01:37:39;17.90;99.90
5457;DHT22;2751;49.802;9.944;2023-09-12T01:40:07;17.90;99.90
5457;DHT22;2751;49.802;9.944;2023-09-12T01:42:37;17.90;99.90
5457;DHT22;2751;49.802;9.944;2023-09-12T01:45:08;17.80;99.90
5457;DHT22;2751;49.802;9.944;2023-09-12T01:47:36;17.70;99.90
5457;DHT22;2751;49.802;9.944;2023-09-12T01:50:06;17.70;99.90
5457;DHT22;2751;49.802;9.944;2023-09-12T01:52:35;17.60;99.90
5457;DHT22;2751;49.802;9.944;2023-09-12T01:55:04;17.60;99.90
5457;DHT22;2751;49.802;9.944;2023-09-12T01:57:31;17.60;99.90
5457;DHT22;2751;49.802;9.944;2023-09-12T01:59:59;17.60;99.90
5457;DHT22;2751;49.802;9.944;2023-09-12T02:02:27;17.50;99.90
5457;DHT22;2751;49.802;9.944;2023-09-12T02:05:06;17.60;99.90
5457;DHT22;2751;49.802;9.944;2023-09-12T02:07:37;17.50;99.90
5457;DHT22;2751;49.802;9.944;2023-09-12T02:10:05;17.50;99.90
5457;DHT22;2751;49.802;9.944;2023-09-12T02:12:33;17.50;99.90
5457;DHT22;2751;49.802;9.944;2023-09-12T02:14:59;17.50;99.90
5457;DHT22;2751;49.802;9.944;2023-09-12T02:17:28;17.60;99.90
5457;DHT22;2751;49.802;9.944;2023-09-12T02:19:55;17.60;99.90
5457;DHT22;2751;49.802;9.944;2023-09-12T02:22:21;17.60;99.90
5457;DHT22;2751;49.802;9.944;2023-09-12T02:24:49;17.60;99.90
5457;DHT22;2751;49.802;9.944;2023-09-12T02:27:16;17.60;99.90
5457;DHT22;2751;49.802;9.944;2023-09-12T02:29:43;17.50;99.90
5457;DHT22;2751;49.802;9.944;2023-09-12T02:32:10;17.50;99.90
5457;DHT22;2751;49.802;9.944;2023-09-12T02:34:38;17.50;99.90
5457;DHT22;2751;49.802;9.944;2023-09-12T02:37:05;17.50;99.90
5457;DHT22;2751;49.802;9.944;2023-09-12T02:39:32;17.50;99.90
5457;DHT22;2751;49.802;9.944;2023-09-12T02:41:59;17.40;99.90
5457;DHT22;2751;49.802;9.944;2023-09-12T02:44:25;17.40;99.90
5457;DHT22;2751;49.802;9.944;2023-09-12T02:46:52;17.40;99.90
5457;DHT22;2751;49.802;9.944;2023-09-12T02:49:19;17.30;99.90
5457;DHT22;2751;49.802;9.944;2023-09-12T02:51:47;17.30;99.90
5457;DHT22;2751;49.802;9.944;2023-09-12T02:54:14;17.30;99.90
5457;DHT22;2751;49.802;9.944;2023-09-12T02:56:41;17.30;99.90
5457;DHT22;2751;49.802;9.944;2023-09-12T02:59:08;17.30;99.90
5457;DHT22;2751;49.802;9.944;2023-09-12T03:01:35;17.30;99.90
5457;DHT22;2751;49.802;9.944;2023-09-12T03:04:02;17.20;99.90
5457;DHT22;2751;49.802;9.944;2023-09-12T03:06:29;17.30;99.90
5457;DHT22;2751;49.802;9.944;2023-09-12T03:08:57;17.20;99.90
5457;DHT22;2751;49.802;9.944;2023-09-12T03:11:26;17.20;99.90
5457;DHT22;2751;49.802;9.944;2023-09-12T03:13:53;17.20;99.90
5457;DHT22;2751;49.802;9.944;2023-09-12T03:16:20;17.20;99.90
5457;DHT22;2751;49.802;9.944;2023-09-12T03:18:48;17.20;99.90
5457;DHT22;2751;49.802;9.944;2023-09-12T03:21:15;17.00;99.90
5457;DHT22;2751;49.802;9.944;2023-09-12T03:23:42;17.20;99.90
5457;DHT22;2751;49.802;9.944;2023-09-12T03:26:10;17.10;99.90
5457;DHT22;2751;49.802;9.944;2023-09-12T03:28:38;17.20;99.90
5457;DHT22;2751;49.802;9.944;2023-09-12T03:31:08;17.10;99.90
5457;DHT22;2751;49.802;9.944;2023-09-12T03:33:37;17.10;99.90
5457;DHT22;2751;49.802;9.944;2023-09-12T03:36:04;17.10;99.90
5457;DHT22;2751;49.802;9.944;2023-09-12T03:38:32;17.00;99.90
5457;DHT22;2751;49.802;9.944;2023-09-12T03:40:59;17.00;99.90
5457;DHT22;2751;49.802;9.944;2023-09-12T03:43:27;17.00;99.90
5457;DHT22;2751;49.802;9.944;2023-09-12T03:45:54;16.90;99.90
5457;DHT22;2751;49.802;9.944;2023-09-12T03:48:21;16.90;99.90
5457;DHT22;2751;49.802;9.944;2023-09-12T03:50:48;16.90;99.90
5457;DHT22;2751;49.802;9.944;2023-09-12T03:53:15;16.90;99.90
5457;DHT22;2751;49.802;9.944;2023-09-12T03:55:42;16.90;99.90
5457;DHT22;2751;49.802;9.944;2023-09-12T03:58:09;16.80;99.90
5457;DHT22;2751;49.802;9.944;2023-09-12T04:00:38;16.70;99.90
5457;DHT22;2751;49.802;9.944;2023-09-12T04:03:05;16.70;99.90
5457;DHT22;2751;49.802;9.944;2023-09-12T04:05:31;16.70;99.90
5457;DHT22;2751;49.802;9.944;2023-09-12T04:07:58;16.30;99.90
5457;DHT22;2751;49.802;9.944;2023-09-12T04:10:25;16.60;99.90
5457;DHT22;2751;49.802;9.944;2023-09-12T04:12:52;16.60;99.90
5457;DHT22;2751;49.802;9.944;2023-09-12T04:15:19;16.60;99.90
5457;DHT22;2751;49.802;9.944;2023-09-12T04:17:48;16.60;99.90
5457;DHT22;2751;49.802;9.944;2023-09-12T04:20:15;16.60;99.90
5457;DHT22;2751;49.802;9.944;2023-09-12T04:22:42;16.60;99.90
5457;DHT22;2751;49.802;9.944;2023-09-12T04:25:09;16.60;99.90
5457;DHT22;2751;49.802;9.944;2023-09-12T04:27:36;16.50;99.90
5457;DHT22;2751;49.802;9.944;2023-09-12T04:30:04;16.50;99.90
5457;DHT22;2751;49.802;9.944;2023-09-12T04:32:31;16.50;99.90
5457;DHT22;2751;49.802;9.944;2023-09-12T04:35:00;16.50;99.90
5457;DHT22;2751;49.802;9.944;2023-09-12T04:37:26;16.50;99.90
5457;DHT22;2751;49.802;9.944;2023-09-12T04:39:53;16.50;99.90
5457;DHT22;2751;49.802;9.944;2023-09-12T04:42:21;16.50;99.90
5457;DHT22;2751;49.802;9.944;2023-09-12T04:44:48;16.50;99.90
5457;DHT22;2751;49.802;9.944;2023-09-12T04:47:15;16.40;99.90
5457;DHT22;2751;49.802;9.944;2023-09-12T04:49:43;16.40;99.90
5457;DHT22;2751;49.802;9.944;2023-09-12T04:52:12;16.40;99.90
5457;DHT22;2751;49.802;9.944;2023-09-12T04:54:38;16.40;99.90
5457;DHT22;2751;49.802;9.944;2023-09-12T04:57:07;16.40;99.90
5457;DHT22;2751;49.802;9.944;2023-09-12T04:59:34;16.30;99.90
5457;DHT22;2751;49.802;9.944;2023-09-12T05:02:00;16.30;99.90
5457;DHT22;2751;49.802;9.944;2023-09-12T05:04:28;16.30;99.90
5457;DHT22;2751;49.802;9.944;2023-09-12T05:06:55;16.30;99.90
5457;DHT22;2751;49.802;9.944;2023-09-12T05:09:23;16.30;99.90
5457;DHT22;2751;49.802;9.944;2023-09-12T05:11:50;16.30;99.90
5457;DHT22;2751;49.802;9.944;2023-09-12T05:14:17;16.30;99.90
5457;DHT22;2751;49.802;9.944;2023-09-12T05:16:44;16.30;99.90
5457;DHT22;2751;49.802;9.944;2023-09-12T05:19:10;16.30;99.90
5457;DHT22;2751;49.802;9.944;2023-09-12T05:21:41;16.30;99.90
5457;DHT22;2751;49.802;9.944;2023-09-12T05:24:08;16.00;99.90
5457;DHT22;2751;49.802;9.944;2023-09-12T05:26:36;16.30;99.90
5457;DHT22;2751;49.802;9.944;2023-09-12T05:29:03;16.40;99.90
5457;DHT22;2751;49.802;9.944;2023-09-12T05:31:31;16.30;99.90
5457;DHT22;2751;49.802;9.944;2023-09-12T05:33:58;16.40;99.90
5457;DHT22;2751;49.802;9.944;2023-09-12T05:36:25;16.40;99.90
5457;DHT22;2751;49.802;9.944;2023-09-12T05:38:52;16.40;99.90
5457;DHT22;2751;49.802;9.944;2023-09-12T05:41:18;16.50;99.90
5457;DHT22;2751;49.802;9.944;2023-09-12T05:43:47;16.50;99.90
5457;DHT22;2751;49.802;9.944;2023-09-12T05:46:13;16.60;99.90
5457;DHT22;2751;49.802;9.944;2023-09-12T05:48:40;16.60;99.90
5457;DHT22;2751;49.802;9.944;2023-09-12T05:51:07;16.60;99.90
5457;DHT22;2751;49.802;9.944;2023-09-12T05:53:34;16.60;99.90
5457;DHT22;2751;49.802;9.944;2023-09-12T05:56:01;16.60;99.90
5457;DHT22;2751;49.802;9.944;2023-09-12T05:58:28;16.70;99.90
5457;DHT22;2751;49.802;9.944;2023-09-12T06:00:57;16.80;99.90
5457;DHT22;2751;49.802;9.944;2023-09-12T06:03:23;16.80;99.90
5457;DHT22;2751;49.802;9.944;2023-09-12T06:05:50;16.90;99.90
5457;DHT22;2751;49.802;9.944;2023-09-12T06:08:17;17.00;99.90
5457;DHT22;2751;49.802;9.944;2023-09-12T06:10:44;17.00;99.90
5457;DHT22;2751;49.802;9.944;2023-09-12T06:13:11;17.10;99.90
5457;DHT22;2751;49.802;9.944;2023-09-12T06:15:40;17.20;99.90
5457;DHT22;2751;49.802;9.944;2023-09-12T06:18:09;17.30;99.90
5457;DHT22;2751;49.802;9.944;2023-09-12T06:20:36;17.30;99.90
5457;DHT22;2751;49.802;9.944;2023-09-12T06:23:03;17.40;99.90
5457;DHT22;2751;49.802;9.944;2023-09-12T06:25:30;17.50;99.90
5457;DHT22;2751;49.802;9.944;2023-09-12T06:27:57;17.60;99.90
5457;DHT22;2751;49.802;9.944;2023-09-12T06:30:25;17.70;99.90
5457;DHT22;2751;49.802;9.944;2023-09-12T06:32:52;17.90;99.90
5457;DHT22;2751;49.802;9.944;2023-09-12T06:35:21;18.00;99.90
5457;DHT22;2751;49.802;9.944;2023-09-12T06:37:47;18.10;99.90
5457;DHT22;2751;49.802;9.944;2023-09-12T06:40:14;18.30;99.90
5457;DHT22;2751;49.802;9.944;2023-09-12T06:42:42;18.50;99.90
5457;DHT22;2751;49.802;9.944;2023-09-12T06:45:12;18.60;99.90
5457;DHT22;2751;49.802;9.944;2023-09-12T06:47:39;18.60;99.90
5457;DHT22;2751;49.802;9.944;2023-09-12T06:50:07;18.70;99.90
5457;DHT22;2751;49.802;9.944;2023-09-12T06:52:35;18.90;99.90
5457;DHT22;2751;49.802;9.944;2023-09-12T06:55:04;19.10;99.90
5457;DHT22;2751;49.802;9.944;2023-09-12T06:57:32;19.10;99.90
5457;DHT22;2751;49.802;9.944;2023-09-12T06:59:59;19.20;99.90
5457;DHT22;2751;49.802;9.944;2023-09-12T07:02:26;19.30;99.90
5457;DHT22;2751;49.802;9.944;2023-09-12T07:04:55;19.50;99.90
5457;DHT22;2751;49.802;9.944;2023-09-12T07:07:22;19.70;99.90
5457;DHT22;2751;49.802;9.944;2023-09-12T07:09:50;19.90;99.90
5457;DHT22;2751;49.802;9.944;2023-09-12T07:12:17;20.10;99.90
5457;DHT22;2751;49.802;9.944;2023-09-12T07:14:45;20.20;99.90
5457;DHT22;2751;49.802;9.944;2023-09-12T07:17:11;20.50;99.90
5457;DHT22;2751;49.802;9.944;2023-09-12T07:19:38;20.70;99.90
5457;DHT22;2751;49.802;9.944;2023-09-12T07:22:05;21.00;99.90
5457;DHT22;2751;49.802;9.944;2023-09-12T07:24:32;21.10;99.90
5457;DHT22;2751;49.802;9.944;2023-09-12T07:27:00;21.20;99.90
5457;DHT22;2751;49.802;9.944;2023-09-12T07:29:30;21.40;99.90
5457;DHT22;2751;49.802;9.944;2023-09-12T07:31:57;21.40;99.90
5457;DHT22;2751;49.802;9.944;2023-09-12T07:34:27;21.60;99.90
5457;DHT22;2751;49.802;9.944;2023-09-12T07:36:54;21.60;99.90
5457;DHT22;2751;49.802;9.944;2023-09-12T07:39:21;21.70;99.90
5457;DHT22;2751;49.802;9.944;2023-09-12T07:41:48;22.20;99.90
5457;DHT22;2751;49.802;9.944;2023-09-12T07:44:16;23.00;99.90
5457;DHT22;2751;49.802;9.944;2023-09-12T07:46:43;23.80;99.90
5457;DHT22;2751;49.802;9.944;2023-09-12T07:49:10;24.00;99.90
5457;DHT22;2751;49.802;9.944;2023-09-12T07:51:37;23.80;99.90
5457;DHT22;2751;49.802;9.944;2023-09-12T07:54:04;24.00;99.90
5457;DHT22;2751;49.802;9.944;2023-09-12T07:56:31;24.10;99.90
5457;DHT22;2751;49.802;9.944;2023-09-12T07:58:58;24.30;99.90
5457;DHT22;2751;49.802;9.944;2023-09-12T08:01:26;24.90;99.90
5457;DHT22;2751;49.802;9.944;2023-09-12T08:03:53;24.90;99.90
5457;DHT22;2751;49.802;9.944;2023-09-12T08:06:20;25.90;99.90
5457;DHT22;2751;49.802;9.944;2023-09-12T08:08:49;27.40;99.90
5457;DHT22;2751;49.802;9.944;2023-09-12T08:11:16;28.50;99.90
5457;DHT22;2751;49.802;9.944;2023-09-12T08:13:48;29.10;1.00
5457;DHT22;2751;49.802;9.944;2023-09-12T08:16:15;30.10;1.00
5457;DHT22;2751;49.802;9.944;2023-09-12T08:18:44;29.40;1.00
5457;DHT22;2751;49.802;9.944;2023-09-12T08:21:11;30.20;1.00
5457;DHT22;2751;49.802;9.944;2023-09-12T08:23:38;30.90;1.00
5457;DHT22;2751;49.802;9.944;2023-09-12T08:26:05;31.30;1.00
5457;DHT22;2751;49.802;9.944;2023-09-12T08:28:32;32.10;1.00
5457;DHT22;2751;49.802;9.944;2023-09-12T08:30:58;31.80;1.00
5457;DHT22;2751;49.802;9.944;2023-09-12T08:33:25;31.00;1.00
5457;DHT22;2751;49.802;9.944;2023-09-12T08:35:54;31.00;1.00
5457;DHT22;2751;49.802;9.944;2023-09-12T08:38:21;31.20;1.00
5457;DHT22;2751;49.802;9.944;2023-09-12T08:40:48;31.00;1.00
5457;DHT22;2751;49.802;9.944;2023-09-12T08:43:16;31.30;1.00
5457;DHT22;2751;49.802;9.944;2023-09-12T08:45:43;32.30;1.00
5457;DHT22;2751;49.802;9.944;2023-09-12T08:48:14;32.80;1.00
5457;DHT22;2751;49.802;9.944;2023-09-12T08:50:42;31.80;1.00
5457;DHT22;2751;49.802;9.944;2023-09-12T08:53:11;30.90;1.00
5457;DHT22;2751;49.802;9.944;2023-09-12T08:55:38;30.70;1.00
5457;DHT22;2751;49.802;9.944;2023-09-12T08:58:05;30.60;1.00
5457;DHT22;2751;49.802;9.944;2023-09-12T09:00:32;31.00;1.00
5457;DHT22;2751;49.802;9.944;2023-09-12T09:03:01;30.90;1.00
5457;DHT22;2751;49.802;9.944;2023-09-12T09:05:29;31.60;1.00
5457;DHT22;2751;49.802;9.944;2023-09-12T09:07:56;31.90;1.00
5457;DHT22;2751;49.802;9.944;2023-09-12T09:10:25;32.70;1.00
5457;DHT22;2751;49.802;9.944;2023-09-12T09:12:53;33.40;1.00
5457;DHT22;2751;49.802;9.944;2023-09-12T09:15:20;34.60;1.00
5457;DHT22;2751;49.802;9.944;2023-09-12T09:17:48;34.40;1.00
5457;DHT22;2751;49.802;9.944;2023-09-12T09:20:26;35.30;1.00
5457;DHT22;2751;49.802;9.944;2023-09-12T09:23:01;36.40;1.00
5457;DHT22;2751;49.802;9.944;2023-09-12T09:25:32;36.70;1.00
5457;DHT22;2751;49.802;9.944;2023-09-12T09:28:04;36.50;1.00
5457;DHT22;2751;49.802;9.944;2023-09-12T09:30:40;37.30;1.00
5457;DHT22;2751;49.802;9.944;2023-09-12T09:33:08;37.80;1.00
5457;DHT22;2751;49.802;9.944;2023-09-12T09:35:35;37.70;1.00
5457;DHT22;2751;49.802;9.944;2023-09-12T09:38:04;38.30;1.00
5457;DHT22;2751;49.802;9.944;2023-09-12T09:40:34;37.60;1.00
5457;DHT22;2751;49.802;9.944;2023-09-12T09:43:02;38.30;1.00
5457;DHT22;2751;49.802;9.944;2023-09-12T09:45:30;38.80;1.00
5457;DHT22;2751;49.802;9.944;2023-09-12T09:47:58;39.40;1.00
5457;DHT22;2751;49.802;9.944;2023-09-12T09:50:26;40.30;1.00
5457;DHT22;2751;49.802;9.944;2023-09-12T09:52:57;40.90;1.00
5457;DHT22;2751;49.802;9.944;2023-09-12T09:55:24;40.90;1.00
5457;DHT22;2751;49.802;9.944;2023-09-12T09:57:53;41.30;1.00
5457;DHT22;2751;49.802;9.944;2023-09-12T10:00:21;41.10;1.00
5457;DHT22;2751;49.802;9.944;2023-09-12T10:02:50;41.40;1.00
5457;DHT22;2751;49.802;9.944;2023-09-12T10:05:17;41.50;1.00
5457;DHT22;2751;49.802;9.944;2023-09-12T10:07:48;41.70;1.00
5457;DHT22;2751;49.802;9.944;2023-09-12T10:10:16;42.30;1.00
5457;DHT22;2751;49.802;9.944;2023-09-12T10:12:48;42.40;1.00
5457;DHT22;2751;49.802;9.944;2023-09-12T10:15:18;42.10;1.00
5457;DHT22;2751;49.802;9.944;2023-09-12T10:17:48;42.30;1.00
5457;DHT22;2751;49.802;9.944;2023-09-12T10:20:21;42.80;1.00
5457;DHT22;2751;49.802;9.944;2023-09-12T10:22:59;43.30;1.00
5457;DHT22;2751;49.802;9.944;2023-09-12T10:25:29;43.30;1.00
5457;DHT22;2751;49.802;9.944;2023-09-12T10:27:57;43.80;1.00
5457;DHT22;2751;49.802;9.944;2023-09-12T10:30:25;44.20;1.00
5457;DHT22;2751;49.802;9.944;2023-09-12T10:32:53;43.60;1.00
5457;DHT22;2751;49.802;9.944;2023-09-12T10:35:23;43.30;1.00
5457;DHT22;2751;49.802;9.944;2023-09-12T10:37:51;43.30;1.00
5457;DHT22;2751;49.802;9.944;2023-09-12T10:40:20;43.10;1.00
5457;DHT22;2751;49.802;9.944;2023-09-12T10:42:48;42.80;1.00
5457;DHT22;2751;49.802;9.944;2023-09-12T10:45:16;42.60;1.00
5457;DHT22;2751;49.802;9.944;2023-09-12T10:47:46;43.20;1.00
5457;DHT22;2751;49.802;9.944;2023-09-12T10:50:14;43.70;1.00
5457;DHT22;2751;49.802;9.944;2023-09-12T10:52:41;44.20;1.00
5457;DHT22;2751;49.802;9.944;2023-09-12T10:55:15;44.50;1.00
5457;DHT22;2751;49.802;9.944;2023-09-12T10:58:04;44.00;1.00
5457;DHT22;2751;49.802;9.944;2023-09-12T11:00:31;44.40;1.00
5457;DHT22;2751;49.802;9.944;2023-09-12T11:03:36;45.00;1.00
5457;DHT22;2751;49.802;9.944;2023-09-12T11:06:04;45.70;1.00
5457;DHT22;2751;49.802;9.944;2023-09-12T11:08:35;45.80;1.00
5457;DHT22;2751;49.802;9.944;2023-09-12T11:11:19;45.90;1.00
5457;DHT22;2751;49.802;9.944;2023-09-12T11:13:47;45.80;1.00
5457;DHT22;2751;49.802;9.944;2023-09-12T11:16:15;45.00;1.00
5457;DHT22;2751;49.802;9.944;2023-09-12T11:19:14;45.30;1.00
5457;DHT22;2751;49.802;9.944;2023-09-12T11:21:43;44.90;1.00
5457;DHT22;2751;49.802;9.944;2023-09-12T11:24:10;44.80;1.00
5457;DHT22;2751;49.802;9.944;2023-09-12T11:26:53;45.20;1.00
5457;DHT22;2751;49.802;9.944;2023-09-12T11:29:20;44.40;1.00
5457;DHT22;2751;49.802;9.944;2023-09-12T11:31:53;44.70;1.00
5457;DHT22;2751;49.802;9.944;2023-09-12T11:34:25;45.00;1.00
5457;DHT22;2751;49.802;9.944;2023-09-12T11:36:55;45.30;1.00
5457;DHT22;2751;49.802;9.944;2023-09-12T11:39:23;45.30;1.00
5457;DHT22;2751;49.802;9.944;2023-09-12T11:41:51;45.30;1.00
5457;DHT22;2751;49.802;9.944;2023-09-12T11:44:19;45.70;1.00
5457;DHT22;2751;49.802;9.944;2023-09-12T11:46:48;46.50;1.00
5457;DHT22;2751;49.802;9.944;2023-09-12T11:49:16;47.10;1.00
5457;DHT22;2751;49.802;9.944;2023-09-12T11:51:49;47.30;1.00
5457;DHT22;2751;49.802;9.944;2023-09-12T11:54:20;47.50;1.00
5457;DHT22;2751;49.802;9.944;2023-09-12T11:56:48;46.30;1.00
5457;DHT22;2751;49.802;9.944;2023-09-12T11:59:30;44.50;1.00
5457;DHT22;2751;49.802;9.944;2023-09-12T12:02:01;43.50;1.00
5457;DHT22;2751;49.802;9.944;2023-09-12T12:04:35;43.60;1.00
5457;DHT22;2751;49.802;9.944;2023-09-12T12:07:09;44.20;1.00
5457;DHT22;2751;49.802;9.944;2023-09-12T12:09:36;44.70;1.00
5457;DHT22;2751;49.802;9.944;2023-09-12T12:12:08;44.20;1.00
5457;DHT22;2751;49.802;9.944;2023-09-12T12:14:53;44.50;1.00
5457;DHT22;2751;49.802;9.944;2023-09-12T12:17:40;44.20;1.00
5457;DHT22;2751;49.802;9.944;2023-09-12T12:28:13;43.90;1.00
5457;DHT22;2751;49.802;9.944;2023-09-12T12:30:40;43.90;1.00
5457;DHT22;2751;49.802;9.944;2023-09-12T12:33:12;43.70;1.00
5457;DHT22;2751;49.802;9.944;2023-09-12T12:35:42;43.70;1.00
5457;DHT22;2751;49.802;9.944;2023-09-12T12:38:12;43.00;1.00
5457;DHT22;2751;49.802;9.944;2023-09-12T12:40:39;42.30;1.00
5457;DHT22;2751;49.802;9.944;2023-09-12T12:43:19;42.20;1.00
5457;DHT22;2751;49.802;9.944;2023-09-12T12:45:52;42.50;1.00
5457;DHT22;2751;49.802;9.944;2023-09-12T12:48:29;43.30;1.00
5457;DHT22;2751;49.802;9.944;2023-09-12T12:50:56;43.60;1.00
5457;DHT22;2751;49.802;9.944;2023-09-12T12:53:43;44.70;1.00
5457;DHT22;2751;49.802;9.944;2023-09-12T12:57:08;45.50;1.00
5457;DHT22;2751;49.802;9.944;2023-09-12T12:59:54;44.70;1.00
5457;DHT22;2751;49.802;9.944;2023-09-12T13:02:39;43.30;1.00
5457;DHT22;2751;49.802;9.944;2023-09-12T13:05:30;42.60;1.00
5457;DHT22;2751;49.802;9.944;2023-09-12T13:07:58;42.00;1.00
5457;DHT22;2751;49.802;9.944;2023-09-12T13:10:25;41.70;1.00
5457;DHT22;2751;49.802;9.944;2023-09-12T13:12:53;40.60;1.00
5457;DHT22;2751;49.802;9.944;2023-09-12T13:15:21;39.10;1.00
5457;DHT22;2751;49.802;9.944;2023-09-12T13:17:56;38.50;1.00
5457;DHT22;2751;49.802;9.944;2023-09-12T13:20:23;37.00;1.00
5457;DHT22;2751;49.802;9.944;2023-09-12T13:22:50;36.30;1.00
5457;DHT22;2751;49.802;9.944;2023-09-12T13:25:17;35.90;1.00
5457;DHT22;2751;49.802;9.944;2023-09-12T13:27:46;35.30;1.00
5457;DHT22;2751;49.802;9.944;2023-09-12T13:30:13;35.00;1.00
5457;DHT22;2751;49.802;9.944;2023-09-12T13:32:41;35.20;1.00
5457;DHT22;2751;49.802;9.944;2023-09-12T13:35:08;35.20;1.00
5457;DHT22;2751;49.802;9.944;2023-09-12T13:37:35;35.10;1.00
5457;DHT22;2751;49.802;9.944;2023-09-12T13:40:03;34.60;1.00
5457;DHT22;2751;49.802;9.944;2023-09-12T13:42:35;34.40;99.90
5457;DHT22;2751;49.802;9.944;2023-09-12T13:45:04;34.40;99.90
5457;DHT22;2751;49.802;9.944;2023-09-12T13:47:32;34.50;99.90
5457;DHT22;2751;49.802;9.944;2023-09-12T13:50:01;34.10;1.00
5457;DHT22;2751;49.802;9.944;2023-09-12T13:52:30;34.00;99.90
5457;DHT22;2751;49.802;9.944;2023-09-12T13:54:57;34.10;99.90
5457;DHT22;2751;49.802;9.944;2023-09-12T13:57:28;34.10;1.00
5457;DHT22;2751;49.802;9.944;2023-09-12T13:59:55;34.10;1.00
5457;DHT22;2751;49.802;9.944;2023-09-12T14:02:22;33.60;99.90
5457;DHT22;2751;49.802;9.944;2023-09-12T14:04:50;33.40;99.90
5457;DHT22;2751;49.802;9.944;2023-09-12T14:07:19;33.30;99.90
5457;DHT22;2751;49.802;9.944;2023-09-12T14:09:47;33.00;99.90
5457;DHT22;2751;49.802;9.944;2023-09-12T14:12:15;33.30;99.90
5457;DHT22;2751;49.802;9.944;2023-09-12T14:14:42;32.90;99.90
5457;DHT22;2751;49.802;9.944;2023-09-12T14:17:10;32.80;99.90
5457;DHT22;2751;49.802;9.944;2023-09-12T14:19:36;32.80;99.90
5457;DHT22;2751;49.802;9.944;2023-09-12T14:22:04;32.90;99.90
5457;DHT22;2751;49.802;9.944;2023-09-12T14:24:35;32.90;99.90
5457;DHT22;2751;49.802;9.944;2023-09-12T14:27:02;32.90;99.90
5457;DHT22;2751;49.802;9.944;2023-09-12T14:29:29;32.90;99.90
5457;DHT22;2751;49.802;9.944;2023-09-12T14:31:58;32.90;99.90
5457;DHT22;2751;49.802;9.944;2023-09-12T14:34:26;32.90;99.90
5457;DHT22;2751;49.802;9.944;2023-09-12T14:36:55;32.70;1.00
5457;DHT22;2751;49.802;9.944;2023-09-12T14:39:23;32.50;99.90
5457;DHT22;2751;49.802;9.944;2023-09-12T14:41:51;32.60;99.90
5457;DHT22;2751;49.802;9.944;2023-09-12T14:44:20;32.60;99.90
5457;DHT22;2751;49.802;9.944;2023-09-12T14:46:50;32.70;99.90
5457;DHT22;2751;49.802;9.944;2023-09-12T14:49:17;32.50;99.90
5457;DHT22;2751;49.802;9.944;2023-09-12T14:51:44;32.40;99.90
5457;DHT22;2751;49.802;9.944;2023-09-12T14:54:14;32.30;99.90
5457;DHT22;2751;49.802;9.944;2023-09-12T14:56:41;32.10;99.90
5457;DHT22;2751;49.802;9.944;2023-09-12T14:59:12;32.20;99.90
5457;DHT22;2751;49.802;9.944;2023-09-12T15:01:46;32.10;99.90
5457;DHT22;2751;49.802;9.944;2023-09-12T15:04:18;31.90;99.90
5457;DHT22;2751;49.802;9.944;2023-09-12T15:06:48;31.80;99.90
5457;DHT22;2751;49.802;9.944;2023-09-12T15:09:21;31.80;99.90
5457;DHT22;2751;49.802;9.944;2023-09-12T15:11:50;31.80;99.90
5457;DHT22;2751;49.802;9.944;2023-09-12T15:14:20;31.90;99.90
5457;DHT22;2751;49.802;9.944;2023-09-12T15:16:48;32.00;99.90
5457;DHT22;2751;49.802;9.944;2023-09-12T15:19:15;31.90;99.90
5457;DHT22;2751;49.802;9.944;2023-09-12T15:21:42;31.80;99.90
5457;DHT22;2751;49.802;9.944;2023-09-12T15:24:09;32.00;99.90
5457;DHT22;2751;49.802;9.944;2023-09-12T15:26:39;32.10;99.90
5457;DHT22;2751;49.802;9.944;2023-09-12T15:29:06;32.30;99.90
5457;DHT22;2751;49.802;9.944;2023-09-12T15:31:34;32.30;99.90
5457;DHT22;2751;49.802;9.944;2023-09-12T15:34:01;32.40;99.90
5457;DHT22;2751;49.802;9.944;2023-09-12T15:36:29;32.60;99.90
5457;DHT22;2751;49.802;9.944;2023-09-12T15:38:56;32.70;99.90
5457;DHT22;2751;49.802;9.944;2023-09-12T15:41:26;32.70;99.90
5457;DHT22;2751;49.802;9.944;2023-09-12T15:43:53;32.70;99.90
5457;DHT22;2751;49.802;9.944;2023-09-12T15:46:20;32.40;99.90
5457;DHT22;2751;49.802;9.944;2023-09-12T15:48:50;32.20;99.90
5457;DHT22;2751;49.802;9.944;2023-09-12T15:51:20;31.80;99.90
5457;DHT22;2751;49.802;9.944;2023-09-12T15:53:50;31.60;99.90
5457;DHT22;2751;49.802;9.944;2023-09-12T15:56:20;31.30;99.90
5457;DHT22;2751;49.802;9.944;2023-09-12T15:58:47;31.20;99.90
5457;DHT22;2751;49.802;9.944;2023-09-12T16:01:14;31.10;99.90
5457;DHT22;2751;49.802;9.944;2023-09-12T16:03:41;31.00;99.90
5457;DHT22;2751;49.802;9.944;2023-09-12T16:06:09;30.90;99.90
5457;DHT22;2751;49.802;9.944;2023-09-12T16:08:36;30.90;99.90
5457;DHT22;2751;49.802;9.944;2023-09-12T16:11:05;30.80;99.90
5457;DHT22;2751;49.802;9.944;2023-09-12T16:13:32;30.80;99.90
5457;DHT22;2751;49.802;9.944;2023-09-12T16:15:59;30.70;99.90
5457;DHT22;2751;49.802;9.944;2023-09-12T16:18:26;30.80;99.90
5457;DHT22;2751;49.802;9.944;2023-09-12T16:20:55;30.70;99.90
5457;DHT22;2751;49.802;9.944;2023-09-12T16:23:24;30.70;99.90
5457;DHT22;2751;49.802;9.944;2023-09-12T16:25:56;30.70;99.90